sensor_id;sensor_type;location;lat;lon;timestamp;P1;durP1;ratioP1;P2;durP2;ratioP2
34900;SDS011;21112;51.976;5.660;2023-02-22T00:00:28;19.98;;;7.93;;
34900;SDS011;21112;51.976;5.660;2023-02-22T00:03:11;21.23;;;8.13;;
34900;SDS011;21112;51.976;5.660;2023-02-22T00:08:31;16.75;;;7.85;;
34900;SDS011;21112;51.976;5.660;2023-02-22T00:21:38;25.30;;;8.25;;
34900;SDS011;21112;51.976;5.660;2023-02-22T00:24:05;19.83;;;7.95;;
34900;SDS011;21112;51.976;5.660;2023-02-22T00:26:47;21.50;;;8.30;;
34900;SDS011;21112;51.976;5.660;2023-02-22T00:29:24;19.50;;;8.13;;
34900;SDS011;21112;51.976;5.660;2023-02-22T00:37:10;19.58;;;7.88;;
34900;SDS011;21112;51.976;5.660;2023-02-22T00:39:47;21.75;;;8.45;;
34900;SDS011;21112;51.976;5.660;2023-02-22T00:42:15;19.88;;;8.18;;
34900;SDS011;21112;51.976;5.660;2023-02-22T00:44:54;22.55;;;8.05;;
34900;SDS011;21112;51.976;5.660;2023-02-22T00:47:23;20.08;;;8.18;;
34900;SDS011;21112;51.976;5.660;2023-02-22T00:49:51;21.73;;;8.65;;
34900;SDS011;21112;51.976;5.660;2023-02-22T00:52:22;22.65;;;8.70;;
34900;SDS011;21112;51.976;5.660;2023-02-22T00:54:49;21.65;;;8.68;;
34900;SDS011;21112;51.976;5.660;2023-02-22T01:02:40;23.48;;;8.82;;
34900;SDS011;21112;51.976;5.660;2023-02-22T01:10:26;23.67;;;9.15;;
34900;SDS011;21112;51.976;5.660;2023-02-22T01:12:55;24.50;;;8.68;;
34900;SDS011;21112;51.976;5.660;2023-02-22T01:17:51;24.75;;;8.65;;
34900;SDS011;21112;51.976;5.660;2023-02-22T01:27:51;22.05;;;9.10;;
34900;SDS011;21112;51.976;5.660;2023-02-22T01:30:19;23.27;;;9.77;;
34900;SDS011;21112;51.976;5.660;2023-02-22T01:32:46;22.17;;;9.30;;
34900;SDS011;21112;51.976;5.660;2023-02-22T01:35:16;23.42;;;8.98;;
34900;SDS011;21112;51.976;5.660;2023-02-22T01:37:43;24.77;;;10.15;;
34900;SDS011;21112;51.976;5.660;2023-02-22T01:50:24;22.60;;;9.43;;
34900;SDS011;21112;51.976;5.660;2023-02-22T01:52:54;29.00;;;10.52;;
34900;SDS011;21112;51.976;5.660;2023-02-22T01:55:21;28.13;;;10.32;;
34900;SDS011;21112;51.976;5.660;2023-02-22T01:57:48;28.67;;;11.38;;
34900;SDS011;21112;51.976;5.660;2023-02-22T02:00:18;27.30;;;10.65;;
34900;SDS011;21112;51.976;5.660;2023-02-22T02:02:46;25.73;;;10.18;;
34900;SDS011;21112;51.976;5.660;2023-02-22T02:05:15;25.98;;;10.98;;
34900;SDS011;21112;51.976;5.660;2023-02-22T02:07:46;30.33;;;11.20;;
34900;SDS011;21112;51.976;5.660;2023-02-22T02:10:13;26.15;;;10.75;;
34900;SDS011;21112;51.976;5.660;2023-02-22T02:12:41;28.83;;;10.73;;
34900;SDS011;21112;51.976;5.660;2023-02-22T02:15:15;27.85;;;10.57;;
34900;SDS011;21112;51.976;5.660;2023-02-22T02:17:45;29.13;;;10.13;;
34900;SDS011;21112;51.976;5.660;2023-02-22T02:20:13;28.00;;;10.90;;
34900;SDS011;21112;51.976;5.660;2023-02-22T02:22:43;27.40;;;10.68;;
34900;SDS011;21112;51.976;5.660;2023-02-22T02:28:10;28.08;;;11.68;;
34900;SDS011;21112;51.976;5.660;2023-02-22T02:30:47;28.27;;;11.02;;
34900;SDS011;21112;51.976;5.660;2023-02-22T02:33:22;26.95;;;10.23;;
34900;SDS011;21112;51.976;5.660;2023-02-22T02:35:54;30.50;;;11.18;;
34900;SDS011;21112;51.976;5.660;2023-02-22T02:38:27;26.73;;;10.60;;
34900;SDS011;21112;51.976;5.660;2023-02-22T02:53:04;31.10;;;10.93;;
34900;SDS011;21112;51.976;5.660;2023-02-22T02:55:32;26.98;;;10.50;;
34900;SDS011;21112;51.976;5.660;2023-02-22T02:58:01;29.88;;;11.85;;
34900;SDS011;21112;51.976;5.660;2023-02-22T03:00:30;28.33;;;11.30;;
34900;SDS011;21112;51.976;5.660;2023-02-22T03:03:15;27.48;;;10.75;;
34900;SDS011;21112;51.976;5.660;2023-02-22T03:05:51;28.73;;;11.63;;
34900;SDS011;21112;51.976;5.660;2023-02-22T03:08:23;27.17;;;10.27;;
34900;SDS011;21112;51.976;5.660;2023-02-22T03:14:56;26.58;;;10.27;;
34900;SDS011;21112;51.976;5.660;2023-02-22T03:17:30;28.05;;;10.50;;
34900;SDS011;21112;51.976;5.660;2023-02-22T03:20:07;28.17;;;10.48;;
34900;SDS011;21112;51.976;5.660;2023-02-22T03:22:38;30.38;;;11.68;;
34900;SDS011;21112;51.976;5.660;2023-02-22T03:25:09;31.92;;;10.60;;
34900;SDS011;21112;51.976;5.660;2023-02-22T03:27:41;33.03;;;11.55;;
34900;SDS011;21112;51.976;5.660;2023-02-22T03:30:11;27.83;;;10.90;;
34900;SDS011;21112;51.976;5.660;2023-02-22T03:32:40;28.52;;;10.68;;
34900;SDS011;21112;51.976;5.660;2023-02-22T03:35:10;33.22;;;10.80;;
34900;SDS011;21112;51.976;5.660;2023-02-22T03:37:39;31.73;;;10.73;;
34900;SDS011;21112;51.976;5.660;2023-02-22T03:40:08;31.73;;;10.50;;
34900;SDS011;21112;51.976;5.660;2023-02-22T03:42:39;31.95;;;11.18;;
34900;SDS011;21112;51.976;5.660;2023-02-22T03:45:07;33.53;;;11.17;;
34900;SDS011;21112;51.976;5.660;2023-02-22T03:47:37;31.63;;;11.00;;
34900;SDS011;21112;51.976;5.660;2023-02-22T03:50:06;30.50;;;11.27;;
34900;SDS011;21112;51.976;5.660;2023-02-22T03:52:34;31.30;;;10.88;;
34900;SDS011;21112;51.976;5.660;2023-02-22T03:55:02;31.98;;;10.98;;
34900;SDS011;21112;51.976;5.660;2023-02-22T03:57:30;31.88;;;11.88;;
34900;SDS011;21112;51.976;5.660;2023-02-22T03:59:57;34.22;;;11.75;;
34900;SDS011;21112;51.976;5.660;2023-02-22T04:02:24;30.60;;;11.60;;
34900;SDS011;21112;51.976;5.660;2023-02-22T04:04:52;34.90;;;11.63;;
34900;SDS011;21112;51.976;5.660;2023-02-22T04:07:19;31.08;;;10.82;;
34900;SDS011;21112;51.976;5.660;2023-02-22T04:09:46;31.58;;;10.63;;
34900;SDS011;21112;51.976;5.660;2023-02-22T04:12:14;32.10;;;10.80;;
34900;SDS011;21112;51.976;5.660;2023-02-22T04:14:41;32.17;;;10.90;;
34900;SDS011;21112;51.976;5.660;2023-02-22T04:17:07;33.38;;;11.75;;
34900;SDS011;21112;51.976;5.660;2023-02-22T04:19:37;35.22;;;12.07;;
34900;SDS011;21112;51.976;5.660;2023-02-22T04:24:40;28.77;;;11.07;;
34900;SDS011;21112;51.976;5.660;2023-02-22T04:27:06;32.30;;;11.60;;
34900;SDS011;21112;51.976;5.660;2023-02-22T04:32:01;36.03;;;12.27;;
34900;SDS011;21112;51.976;5.660;2023-02-22T04:34:28;30.05;;;11.07;;
34900;SDS011;21112;51.976;5.660;2023-02-22T04:36:55;34.72;;;12.40;;
34900;SDS011;21112;51.976;5.660;2023-02-22T04:39:21;37.72;;;12.70;;
34900;SDS011;21112;51.976;5.660;2023-02-22T04:41:50;33.80;;;11.90;;
34900;SDS011;21112;51.976;5.660;2023-02-22T04:44:17;35.10;;;11.10;;
34900;SDS011;21112;51.976;5.660;2023-02-22T04:46:43;36.13;;;11.45;;
34900;SDS011;21112;51.976;5.660;2023-02-22T04:51:54;34.17;;;11.85;;
34900;SDS011;21112;51.976;5.660;2023-02-22T04:54:20;35.08;;;11.48;;
34900;SDS011;21112;51.976;5.660;2023-02-22T04:56:47;37.40;;;11.10;;
34900;SDS011;21112;51.976;5.660;2023-02-22T04:59:14;35.47;;;12.40;;
34900;SDS011;21112;51.976;5.660;2023-02-22T05:01:41;39.75;;;12.57;;
34900;SDS011;21112;51.976;5.660;2023-02-22T05:04:07;38.80;;;12.82;;
34900;SDS011;21112;51.976;5.660;2023-02-22T05:06:34;32.85;;;12.02;;
34900;SDS011;21112;51.976;5.660;2023-02-22T05:09:02;38.63;;;12.50;;
34900;SDS011;21112;51.976;5.660;2023-02-22T05:11:29;37.92;;;12.38;;
34900;SDS011;21112;51.976;5.660;2023-02-22T05:13:56;39.42;;;12.43;;
34900;SDS011;21112;51.976;5.660;2023-02-22T05:16:22;36.38;;;11.55;;
34900;SDS011;21112;51.976;5.660;2023-02-22T05:18:49;36.05;;;12.95;;
34900;SDS011;21112;51.976;5.660;2023-02-22T05:21:16;37.97;;;12.95;;
34900;SDS011;21112;51.976;5.660;2023-02-22T05:23:43;38.95;;;12.98;;
34900;SDS011;21112;51.976;5.660;2023-02-22T05:26:11;31.85;;;11.52;;
34900;SDS011;21112;51.976;5.660;2023-02-22T05:28:38;36.28;;;11.70;;
34900;SDS011;21112;51.976;5.660;2023-02-22T05:34:04;41.20;;;12.50;;
34900;SDS011;21112;51.976;5.660;2023-02-22T05:36:31;43.22;;;12.48;;
34900;SDS011;21112;51.976;5.660;2023-02-22T05:38:57;42.40;;;12.88;;
34900;SDS011;21112;51.976;5.660;2023-02-22T05:41:26;37.47;;;13.00;;
34900;SDS011;21112;51.976;5.660;2023-02-22T05:43:53;36.75;;;12.77;;
34900;SDS011;21112;51.976;5.660;2023-02-22T05:46:20;38.08;;;13.02;;
34900;SDS011;21112;51.976;5.660;2023-02-22T05:48:46;38.42;;;13.35;;
34900;SDS011;21112;51.976;5.660;2023-02-22T05:51:13;42.78;;;13.05;;
34900;SDS011;21112;51.976;5.660;2023-02-22T05:56:26;39.90;;;13.60;;
34900;SDS011;21112;51.976;5.660;2023-02-22T05:58:54;42.90;;;13.93;;
34900;SDS011;21112;51.976;5.660;2023-02-22T06:01:21;37.97;;;13.60;;
34900;SDS011;21112;51.976;5.660;2023-02-22T06:03:48;37.75;;;12.77;;
34900;SDS011;21112;51.976;5.660;2023-02-22T06:06:16;42.22;;;12.88;;
34900;SDS011;21112;51.976;5.660;2023-02-22T06:08:44;37.40;;;12.95;;
34900;SDS011;21112;51.976;5.660;2023-02-22T06:11:11;42.70;;;13.45;;
34900;SDS011;21112;51.976;5.660;2023-02-22T06:16:21;39.15;;;14.35;;
34900;SDS011;21112;51.976;5.660;2023-02-22T06:18:47;41.63;;;13.85;;
34900;SDS011;21112;51.976;5.660;2023-02-22T06:21:14;38.00;;;13.07;;
34900;SDS011;21112;51.976;5.660;2023-02-22T06:23:42;39.10;;;14.57;;
34900;SDS011;21112;51.976;5.660;2023-02-22T06:26:12;36.53;;;12.88;;
34900;SDS011;21112;51.976;5.660;2023-02-22T06:28:43;38.67;;;13.18;;
34900;SDS011;21112;51.976;5.660;2023-02-22T06:31:10;39.22;;;13.18;;
34900;SDS011;21112;51.976;5.660;2023-02-22T06:33:40;37.17;;;12.63;;
34900;SDS011;21112;51.976;5.660;2023-02-22T06:36:07;36.85;;;11.98;;
34900;SDS011;21112;51.976;5.660;2023-02-22T06:38:34;42.13;;;14.10;;
34900;SDS011;21112;51.976;5.660;2023-02-22T06:46:10;38.38;;;13.23;;
34900;SDS011;21112;51.976;5.660;2023-02-22T06:48:37;37.30;;;12.38;;
34900;SDS011;21112;51.976;5.660;2023-02-22T06:51:04;40.55;;;13.32;;
34900;SDS011;21112;51.976;5.660;2023-02-22T06:56:14;39.70;;;14.68;;
34900;SDS011;21112;51.976;5.660;2023-02-22T06:58:41;41.67;;;13.63;;
34900;SDS011;21112;51.976;5.660;2023-02-22T07:01:07;45.35;;;15.02;;
34900;SDS011;21112;51.976;5.660;2023-02-22T07:03:34;40.95;;;14.20;;
34900;SDS011;21112;51.976;5.660;2023-02-22T07:08:29;38.70;;;12.85;;
34900;SDS011;21112;51.976;5.660;2023-02-22T07:10:56;37.97;;;13.63;;
34900;SDS011;21112;51.976;5.660;2023-02-22T07:13:24;37.90;;;13.60;;
34900;SDS011;21112;51.976;5.660;2023-02-22T07:15:51;36.65;;;13.63;;
34900;SDS011;21112;51.976;5.660;2023-02-22T07:18:18;37.95;;;13.68;;
34900;SDS011;21112;51.976;5.660;2023-02-22T07:20:45;45.20;;;13.80;;
34900;SDS011;21112;51.976;5.660;2023-02-22T07:23:15;40.10;;;13.55;;
34900;SDS011;21112;51.976;5.660;2023-02-22T07:25:42;38.70;;;13.38;;
34900;SDS011;21112;51.976;5.660;2023-02-22T07:28:09;44.20;;;13.75;;
34900;SDS011;21112;51.976;5.660;2023-02-22T07:30:37;41.78;;;13.10;;
34900;SDS011;21112;51.976;5.660;2023-02-22T07:35:30;41.88;;;14.30;;
34900;SDS011;21112;51.976;5.660;2023-02-22T07:42:55;38.92;;;13.52;;
34900;SDS011;21112;51.976;5.660;2023-02-22T07:45:25;35.15;;;13.23;;
34900;SDS011;21112;51.976;5.660;2023-02-22T07:47:53;42.50;;;14.03;;
34900;SDS011;21112;51.976;5.660;2023-02-22T07:50:20;43.47;;;14.10;;
34900;SDS011;21112;51.976;5.660;2023-02-22T07:58:13;38.05;;;12.55;;
34900;SDS011;21112;51.976;5.660;2023-02-22T08:00:41;38.35;;;13.52;;
34900;SDS011;21112;51.976;5.660;2023-02-22T08:03:10;42.50;;;13.30;;
34900;SDS011;21112;51.976;5.660;2023-02-22T08:08:25;35.78;;;12.63;;
34900;SDS011;21112;51.976;5.660;2023-02-22T08:10:52;33.78;;;12.90;;
34900;SDS011;21112;51.976;5.660;2023-02-22T08:13:18;39.85;;;13.77;;
34900;SDS011;21112;51.976;5.660;2023-02-22T08:15:46;34.05;;;12.02;;
34900;SDS011;21112;51.976;5.660;2023-02-22T08:18:14;38.83;;;11.50;;
34900;SDS011;21112;51.976;5.660;2023-02-22T08:28:11;36.08;;;13.50;;
34900;SDS011;21112;51.976;5.660;2023-02-22T08:30:43;37.47;;;12.27;;
34900;SDS011;21112;51.976;5.660;2023-02-22T08:35:35;39.28;;;13.00;;
34900;SDS011;21112;51.976;5.660;2023-02-22T08:53:46;42.80;;;16.65;;
34900;SDS011;21112;51.976;5.660;2023-02-22T08:56:14;39.40;;;13.68;;
34900;SDS011;21112;51.976;5.660;2023-02-22T08:58:43;40.70;;;12.95;;
34900;SDS011;21112;51.976;5.660;2023-02-22T09:01:12;32.75;;;12.23;;
34900;SDS011;21112;51.976;5.660;2023-02-22T09:03:39;31.05;;;11.88;;
34900;SDS011;21112;51.976;5.660;2023-02-22T09:08:51;32.35;;;11.85;;
34900;SDS011;21112;51.976;5.660;2023-02-22T09:11:21;31.80;;;10.85;;
34900;SDS011;21112;51.976;5.660;2023-02-22T09:13:48;34.10;;;12.18;;
34900;SDS011;21112;51.976;5.660;2023-02-22T09:16:17;32.78;;;11.48;;
34900;SDS011;21112;51.976;5.660;2023-02-22T09:18:44;37.67;;;12.80;;
34900;SDS011;21112;51.976;5.660;2023-02-22T09:21:12;36.55;;;12.65;;
34900;SDS011;21112;51.976;5.660;2023-02-22T09:23:41;40.80;;;13.30;;
34900;SDS011;21112;51.976;5.660;2023-02-22T09:26:11;38.40;;;12.00;;
34900;SDS011;21112;51.976;5.660;2023-02-22T09:28:52;38.50;;;11.75;;
34900;SDS011;21112;51.976;5.660;2023-02-22T09:31:18;35.65;;;11.23;;
34900;SDS011;21112;51.976;5.660;2023-02-22T09:33:50;36.28;;;12.77;;
34900;SDS011;21112;51.976;5.660;2023-02-22T09:36:19;38.08;;;12.07;;
34900;SDS011;21112;51.976;5.660;2023-02-22T09:38:46;37.25;;;12.07;;
34900;SDS011;21112;51.976;5.660;2023-02-22T09:41:17;36.40;;;11.77;;
34900;SDS011;21112;51.976;5.660;2023-02-22T09:43:50;33.30;;;11.32;;
34900;SDS011;21112;51.976;5.660;2023-02-22T09:46:25;32.65;;;11.15;;
34900;SDS011;21112;51.976;5.660;2023-02-22T09:51:17;34.15;;;12.05;;
34900;SDS011;21112;51.976;5.660;2023-02-22T10:17:17;34.53;;;11.38;;
34900;SDS011;21112;51.976;5.660;2023-02-22T10:19:49;35.10;;;11.98;;
34900;SDS011;21112;51.976;5.660;2023-02-22T10:22:24;36.47;;;12.15;;
34900;SDS011;21112;51.976;5.660;2023-02-22T10:24:58;33.78;;;11.85;;
34900;SDS011;21112;51.976;5.660;2023-02-22T10:27:27;33.25;;;11.75;;
34900;SDS011;21112;51.976;5.660;2023-02-22T10:29:56;31.13;;;11.18;;
34900;SDS011;21112;51.976;5.660;2023-02-22T10:37:39;41.03;;;11.70;;
34900;SDS011;21112;51.976;5.660;2023-02-22T10:40:11;41.17;;;13.48;;
34900;SDS011;21112;51.976;5.660;2023-02-22T10:58:19;38.10;;;11.80;;
34900;SDS011;21112;51.976;5.660;2023-02-22T11:00:45;43.28;;;13.40;;
34900;SDS011;21112;51.976;5.660;2023-02-22T11:03:15;41.97;;;13.68;;
34900;SDS011;21112;51.976;5.660;2023-02-22T11:08:25;37.75;;;13.32;;
34900;SDS011;21112;51.976;5.660;2023-02-22T11:10:53;41.72;;;13.40;;
34900;SDS011;21112;51.976;5.660;2023-02-22T11:13:26;41.72;;;14.15;;
34900;SDS011;21112;51.976;5.660;2023-02-22T11:15:57;43.00;;;12.15;;
34900;SDS011;21112;51.976;5.660;2023-02-22T11:18:25;38.60;;;12.65;;
34900;SDS011;21112;51.976;5.660;2023-02-22T11:20:58;35.70;;;13.23;;
34900;SDS011;21112;51.976;5.660;2023-02-22T11:23:28;37.67;;;13.25;;
34900;SDS011;21112;51.976;5.660;2023-02-22T11:26:02;35.28;;;12.82;;
34900;SDS011;21112;51.976;5.660;2023-02-22T11:28:31;41.13;;;14.15;;
34900;SDS011;21112;51.976;5.660;2023-02-22T11:31:07;39.63;;;13.23;;
34900;SDS011;21112;51.976;5.660;2023-02-22T11:33:37;41.67;;;13.45;;
34900;SDS011;21112;51.976;5.660;2023-02-22T11:36:09;39.72;;;13.57;;
34900;SDS011;21112;51.976;5.660;2023-02-22T11:38:41;37.70;;;12.15;;
34900;SDS011;21112;51.976;5.660;2023-02-22T11:49:08;38.45;;;12.82;;
34900;SDS011;21112;51.976;5.660;2023-02-22T11:51:44;36.47;;;12.90;;
34900;SDS011;21112;51.976;5.660;2023-02-22T11:54:19;33.70;;;11.88;;
34900;SDS011;21112;51.976;5.660;2023-02-22T11:56:55;35.47;;;11.80;;
34900;SDS011;21112;51.976;5.660;2023-02-22T11:59:26;29.92;;;11.50;;
34900;SDS011;21112;51.976;5.660;2023-02-22T12:01:57;33.47;;;11.55;;
34900;SDS011;21112;51.976;5.660;2023-02-22T12:07:05;34.10;;;11.52;;
34900;SDS011;21112;51.976;5.660;2023-02-22T12:09:41;29.10;;;11.70;;
34900;SDS011;21112;51.976;5.660;2023-02-22T12:12:11;31.92;;;11.82;;
34900;SDS011;21112;51.976;5.660;2023-02-22T12:14:43;38.90;;;12.13;;
34900;SDS011;21112;51.976;5.660;2023-02-22T12:24:35;31.67;;;11.43;;
34900;SDS011;21112;51.976;5.660;2023-02-22T12:27:02;33.72;;;11.90;;
34900;SDS011;21112;51.976;5.660;2023-02-22T12:29:40;35.70;;;11.57;;
34900;SDS011;21112;51.976;5.660;2023-02-22T12:42:37;36.72;;;11.65;;
34900;SDS011;21112;51.976;5.660;2023-02-22T12:45:12;28.58;;;10.85;;
34900;SDS011;21112;51.976;5.660;2023-02-22T12:52:54;32.13;;;11.52;;
34900;SDS011;21112;51.976;5.660;2023-02-22T12:55:28;29.33;;;11.48;;
34900;SDS011;21112;51.976;5.660;2023-02-22T13:00:49;30.13;;;11.10;;
34900;SDS011;21112;51.976;5.660;2023-02-22T13:03:28;31.10;;;11.45;;
34900;SDS011;21112;51.976;5.660;2023-02-22T13:05:59;29.20;;;11.40;;
34900;SDS011;21112;51.976;5.660;2023-02-22T13:11:13;30.00;;;11.23;;
34900;SDS011;21112;51.976;5.660;2023-02-22T13:13:44;29.95;;;11.38;;
34900;SDS011;21112;51.976;5.660;2023-02-22T13:16:20;32.03;;;11.20;;
34900;SDS011;21112;51.976;5.660;2023-02-22T13:30:01;32.13;;;10.40;;
34900;SDS011;21112;51.976;5.660;2023-02-22T13:38:16;29.13;;;10.10;;
34900;SDS011;21112;51.976;5.660;2023-02-22T13:41:04;29.83;;;11.07;;
34900;SDS011;21112;51.976;5.660;2023-02-22T13:43:37;27.42;;;10.13;;
34900;SDS011;21112;51.976;5.660;2023-02-22T13:46:19;30.52;;;10.15;;
34900;SDS011;21112;51.976;5.660;2023-02-22T13:54:01;25.90;;;9.93;;
34900;SDS011;21112;51.976;5.660;2023-02-22T13:56:30;26.85;;;10.07;;
34900;SDS011;21112;51.976;5.660;2023-02-22T13:59:01;27.30;;;10.25;;
34900;SDS011;21112;51.976;5.660;2023-02-22T14:06:38;24.70;;;9.68;;
34900;SDS011;21112;51.976;5.660;2023-02-22T14:16:41;27.65;;;9.95;;
34900;SDS011;21112;51.976;5.660;2023-02-22T14:42:09;28.23;;;10.13;;
34900;SDS011;21112;51.976;5.660;2023-02-22T14:44:37;29.75;;;10.73;;
34900;SDS011;21112;51.976;5.660;2023-02-22T14:47:08;26.08;;;10.15;;
34900;SDS011;21112;51.976;5.660;2023-02-22T14:57:50;23.42;;;9.98;;
34900;SDS011;21112;51.976;5.660;2023-02-22T15:13:47;22.33;;;8.30;;
